Salina, KS (67401)

18:29 CDT le 25 mai 2015 (GMT -0500)
Central Salina | | Change Station
CLOSE
Current Station
Stations météorologiques personnelles
Location: Salina, KS
Altitude: 1243 ft
Stations météo à proximité
Avis météorologiques actifs: Severe Thunderstorm Watch Préavis actif: Local Storm Report

Alt. 1243 ft 38.82 °N, 97.62 °W | Updated 21 seconds ago

Pluie
Pluie
61.3 ° F
Paraît 61.3 ° F
N
1.1
Vent Variable Vent de OSO
Gusts 3.1 mph

Aujourd'hui
Haut(e) -- | Bas -- ° F
--% Risque de précip.
Hier
Haut(e) -- | Bas -- ° F
Precip. -- pouce
6:10 AM 8:44 PM
Premier quartier, 52% visible
Pression 29.80 pouce
Visibilité 7.0 Miles terrestres
Nuages Nuages épars 8000 ft
Nuageux 9500 ft
Couvert 11000 ft
Point de rosée 58 ° F
Humidité 90%
Précipitations 0.83 pouce
Profondeur de la couche neigeuse Non disponible.
UV 1 sur 12
Pollen 7.60 sur 12
Qualité de l'air Non disponible.
Flu Activity No Activity
SPECI KSLN 252316Z 16011G17KT 7SM -TSRA SCT080 BKN095 OVC110 17/13 A2980 RMK AO2 LTG DSNT ALQDS TSB10 P0002 T01720133

More Conditions Fewer Conditions

Pression 29.80 pouce
Visibilité 7.0 Miles terrestres
Nuages Nuages épars 8000 ft
Nuageux 9500 ft
Couvert 11000 ft
Point de rosée 58 ° F
Humidité 90%
Précipitations 0.83 pouce
Profondeur de la couche neigeuse Non disponible.
UV 1 sur 12
Pollen 7.60 sur 12
Qualité de l'air Non disponible.
Flu Activity No Activity
SPECI KSLN 252316Z 16011G17KT 7SM -TSRA SCT080 BKN095 OVC110 17/13 A2980 RMK AO2 LTG DSNT ALQDS TSB10 P0002 T01720133

More Conditions Fewer Conditions

10-Day Weather Forecast

Almanac

Astronomie

May. 25, 2015 Lever Coucher
Temps réel
Crépuscule civil
Crépuscule nautique
Crépuscule astronomique
Lune
Durée de lumière visible
Longueur du jour
Tomorrow will be .
, % of the Moon is Illuminated

Extrêmes aujourd'hui

State Highs State Lows

Community

WunderPhotos

Upload Photos

1,824,169 Photos téléchargées !

WunderBlogs® & News

Nearby

Qualité de l'air

  Qualité de l'air Indice de la qualité de l'air Polluant
Not available.

Épaisseur de neige

Station Depth Altitude

Activité sismique

Ville Distance Mag. Time & Date
Minimum magnitude displayed is 2.5.

Températures des eaux côtières

Lieu Température

Stations

Stations météo à proximité

Emplacement de la station Température Refroidissement éolien Point de rosée Humidité Vent Precip. Alt. Mise à jour Type
                   
Severe Thunderstorm Watch
Statement as of 18:24 CDT le 25 mai 2015

Severe Thunderstorm Watch 213 remains in effect until 1000 PM CDT
for the following locations


KS
. Kansas counties included are

Brown Butler Chase
Chautauqua Clay cloud
Cowley Dickinson Elk
Ellsworth Geary Greenwood
Harper Harvey Jackson
Kingman Lincoln Lyon
McPherson Marion Marshall
Morris Nemaha Osage
Ottawa Pottawatomie Reno
Republic Rice Riley
Saline Sedgwick Shawnee
Sumner Wabaunsee Washington